sensor_id;sensor_type;location;lat;lon;timestamp;P1;durP1;ratioP1;P2;durP2;ratioP2
66521;SDS011;53349;53.538;8.584;2022-10-31T00:01:22;34.75;;;16.85;;
66521;SDS011;53349;53.538;8.584;2022-10-31T00:03:50;36.58;;;17.25;;
66521;SDS011;53349;53.538;8.584;2022-10-31T00:06:16;35.37;;;16.10;;
66521;SDS011;53349;53.538;8.584;2022-10-31T00:08:45;36.60;;;17.75;;
66521;SDS011;53349;53.538;8.584;2022-10-31T00:11:11;34.72;;;16.80;;
66521;SDS011;53349;53.538;8.584;2022-10-31T00:13:36;32.00;;;15.80;;
66521;SDS011;53349;53.538;8.584;2022-10-31T00:16:02;34.47;;;16.93;;
66521;SDS011;53349;53.538;8.584;2022-10-31T00:18:27;36.78;;;16.30;;
66521;SDS011;53349;53.538;8.584;2022-10-31T00:21:00;33.77;;;16.40;;
66521;SDS011;53349;53.538;8.584;2022-10-31T00:23:27;35.47;;;16.55;;
66521;SDS011;53349;53.538;8.584;2022-10-31T00:25:53;35.50;;;15.80;;
66521;SDS011;53349;53.538;8.584;2022-10-31T00:28:18;34.20;;;16.27;;
66521;SDS011;53349;53.538;8.584;2022-10-31T00:30:44;33.57;;;16.43;;
66521;SDS011;53349;53.538;8.584;2022-10-31T00:33:09;33.60;;;16.30;;
66521;SDS011;53349;53.538;8.584;2022-10-31T00:35:34;32.10;;;16.97;;
66521;SDS011;53349;53.538;8.584;2022-10-31T00:38:00;32.83;;;16.63;;
66521;SDS011;53349;53.538;8.584;2022-10-31T00:40:25;31.77;;;17.03;;
66521;SDS011;53349;53.538;8.584;2022-10-31T00:42:50;37.67;;;16.80;;
66521;SDS011;53349;53.538;8.584;2022-10-31T00:45:16;34.87;;;16.83;;
66521;SDS011;53349;53.538;8.584;2022-10-31T00:47:43;33.40;;;17.20;;
66521;SDS011;53349;53.538;8.584;2022-10-31T00:50:08;39.22;;;17.90;;
66521;SDS011;53349;53.538;8.584;2022-10-31T00:52:34;33.57;;;17.00;;
66521;SDS011;53349;53.538;8.584;2022-10-31T00:54:59;34.15;;;16.30;;
66521;SDS011;53349;53.538;8.584;2022-10-31T00:57:25;33.23;;;16.47;;
66521;SDS011;53349;53.538;8.584;2022-10-31T00:59:50;35.07;;;16.57;;
66521;SDS011;53349;53.538;8.584;2022-10-31T01:02:15;39.10;;;17.13;;
66521;SDS011;53349;53.538;8.584;2022-10-31T01:04:41;35.05;;;16.67;;
66521;SDS011;53349;53.538;8.584;2022-10-31T01:07:06;34.03;;;17.23;;
66521;SDS011;53349;53.538;8.584;2022-10-31T01:09:32;40.97;;;17.57;;
66521;SDS011;53349;53.538;8.584;2022-10-31T01:11:57;35.13;;;17.05;;
66521;SDS011;53349;53.538;8.584;2022-10-31T01:14:23;33.40;;;16.73;;
66521;SDS011;53349;53.538;8.584;2022-10-31T01:16:48;34.00;;;16.57;;
66521;SDS011;53349;53.538;8.584;2022-10-31T01:19:17;40.27;;;17.97;;
66521;SDS011;53349;53.538;8.584;2022-10-31T01:21:42;38.80;;;17.85;;
66521;SDS011;53349;53.538;8.584;2022-10-31T01:24:08;35.23;;;16.83;;
66521;SDS011;53349;53.538;8.584;2022-10-31T01:26:33;37.67;;;17.17;;
66521;SDS011;53349;53.538;8.584;2022-10-31T01:28:59;34.73;;;17.00;;
66521;SDS011;53349;53.538;8.584;2022-10-31T01:31:27;36.15;;;16.42;;
66521;SDS011;53349;53.538;8.584;2022-10-31T01:33:54;38.75;;;16.88;;
66521;SDS011;53349;53.538;8.584;2022-10-31T01:38:51;39.53;;;16.17;;
66521;SDS011;53349;53.538;8.584;2022-10-31T01:41:19;36.90;;;15.93;;
66521;SDS011;53349;53.538;8.584;2022-10-31T01:46:31;35.75;;;15.82;;
66521;SDS011;53349;53.538;8.584;2022-10-31T01:49:00;36.58;;;15.85;;
66521;SDS011;53349;53.538;8.584;2022-10-31T01:51:30;33.57;;;14.60;;
66521;SDS011;53349;53.538;8.584;2022-10-31T01:54:01;34.35;;;14.52;;
66521;SDS011;53349;53.538;8.584;2022-10-31T01:56:30;31.20;;;14.65;;
66521;SDS011;53349;53.538;8.584;2022-10-31T01:58:58;32.83;;;14.95;;
66521;SDS011;53349;53.538;8.584;2022-10-31T02:01:27;33.08;;;14.95;;
66521;SDS011;53349;53.538;8.584;2022-10-31T02:03:54;29.83;;;13.33;;
66521;SDS011;53349;53.538;8.584;2022-10-31T02:06:29;32.15;;;15.35;;
66521;SDS011;53349;53.538;8.584;2022-10-31T02:09:00;33.88;;;14.75;;
66521;SDS011;53349;53.538;8.584;2022-10-31T02:11:28;30.50;;;13.48;;
66521;SDS011;53349;53.538;8.584;2022-10-31T02:13:54;31.63;;;14.05;;
66521;SDS011;53349;53.538;8.584;2022-10-31T02:16:20;29.80;;;13.50;;
66521;SDS011;53349;53.538;8.584;2022-10-31T02:18:45;31.53;;;13.10;;
66521;SDS011;53349;53.538;8.584;2022-10-31T02:21:15;30.85;;;13.43;;
66521;SDS011;53349;53.538;8.584;2022-10-31T02:32:13;26.67;;;11.45;;
66521;SDS011;53349;53.538;8.584;2022-10-31T02:40:23;26.42;;;11.90;;
66521;SDS011;53349;53.538;8.584;2022-10-31T02:45:43;34.83;;;12.55;;
66521;SDS011;53349;53.538;8.584;2022-10-31T02:48:20;32.60;;;12.13;;
66521;SDS011;53349;53.538;8.584;2022-10-31T02:50:55;33.47;;;13.35;;
66521;SDS011;53349;53.538;8.584;2022-10-31T02:53:24;31.98;;;13.38;;
66521;SDS011;53349;53.538;8.584;2022-10-31T02:55:58;32.92;;;12.75;;
66521;SDS011;53349;53.538;8.584;2022-10-31T02:58:27;32.75;;;13.43;;
66521;SDS011;53349;53.538;8.584;2022-10-31T03:03:51;29.25;;;12.43;;
66521;SDS011;53349;53.538;8.584;2022-10-31T03:09:34;29.27;;;12.60;;
66521;SDS011;53349;53.538;8.584;2022-10-31T03:12:11;29.98;;;12.63;;
66521;SDS011;53349;53.538;8.584;2022-10-31T03:14:48;29.30;;;12.57;;
66521;SDS011;53349;53.538;8.584;2022-10-31T03:19:58;30.25;;;13.45;;
66521;SDS011;53349;53.538;8.584;2022-10-31T03:22:28;32.72;;;13.65;;
66521;SDS011;53349;53.538;8.584;2022-10-31T03:24:55;31.63;;;13.18;;
66521;SDS011;53349;53.538;8.584;2022-10-31T03:27:23;28.58;;;13.27;;
66521;SDS011;53349;53.538;8.584;2022-10-31T03:29:52;29.83;;;12.30;;
66521;SDS011;53349;53.538;8.584;2022-10-31T03:32:27;27.95;;;11.95;;
66521;SDS011;53349;53.538;8.584;2022-10-31T03:34:58;29.80;;;12.38;;
66521;SDS011;53349;53.538;8.584;2022-10-31T03:37:27;29.52;;;12.23;;
66521;SDS011;53349;53.538;8.584;2022-10-31T03:39:56;25.45;;;10.95;;
66521;SDS011;53349;53.538;8.584;2022-10-31T03:42:25;27.00;;;11.93;;
66521;SDS011;53349;53.538;8.584;2022-10-31T03:44:56;26.90;;;12.45;;
66521;SDS011;53349;53.538;8.584;2022-10-31T03:47:27;27.70;;;12.32;;
66521;SDS011;53349;53.538;8.584;2022-10-31T03:49:53;29.25;;;11.93;;
66521;SDS011;53349;53.538;8.584;2022-10-31T03:54:57;23.13;;;11.70;;
66521;SDS011;53349;53.538;8.584;2022-10-31T04:00:18;26.33;;;11.82;;
66521;SDS011;53349;53.538;8.584;2022-10-31T04:03:06;26.17;;;12.30;;
66521;SDS011;53349;53.538;8.584;2022-10-31T04:05:34;23.98;;;11.60;;
66521;SDS011;53349;53.538;8.584;2022-10-31T04:08:02;26.45;;;12.07;;
66521;SDS011;53349;53.538;8.584;2022-10-31T04:10:32;25.73;;;12.02;;
66521;SDS011;53349;53.538;8.584;2022-10-31T04:13:01;26.33;;;12.07;;
66521;SDS011;53349;53.538;8.584;2022-10-31T04:15:30;27.05;;;12.27;;
66521;SDS011;53349;53.538;8.584;2022-10-31T04:17:57;27.27;;;11.95;;
66521;SDS011;53349;53.538;8.584;2022-10-31T04:20:34;27.42;;;12.32;;
66521;SDS011;53349;53.538;8.584;2022-10-31T04:23:02;28.52;;;12.77;;
66521;SDS011;53349;53.538;8.584;2022-10-31T04:25:28;26.95;;;12.45;;
66521;SDS011;53349;53.538;8.584;2022-10-31T04:27:54;26.67;;;12.88;;
66521;SDS011;53349;53.538;8.584;2022-10-31T04:30:19;23.80;;;12.82;;
66521;SDS011;53349;53.538;8.584;2022-10-31T04:32:44;29.47;;;13.40;;
66521;SDS011;53349;53.538;8.584;2022-10-31T04:35:11;25.80;;;12.73;;
66521;SDS011;53349;53.538;8.584;2022-10-31T04:37:37;28.63;;;12.60;;
66521;SDS011;53349;53.538;8.584;2022-10-31T04:40:02;27.27;;;12.50;;
66521;SDS011;53349;53.538;8.584;2022-10-31T04:42:29;28.30;;;12.50;;
66521;SDS011;53349;53.538;8.584;2022-10-31T04:44:55;26.15;;;11.93;;
66521;SDS011;53349;53.538;8.584;2022-10-31T04:47:20;26.60;;;12.57;;
66521;SDS011;53349;53.538;8.584;2022-10-31T04:49:46;28.23;;;11.90;;
66521;SDS011;53349;53.538;8.584;2022-10-31T04:52:11;23.57;;;11.87;;
66521;SDS011;53349;53.538;8.584;2022-10-31T04:54:36;25.83;;;12.10;;
66521;SDS011;53349;53.538;8.584;2022-10-31T04:57:02;26.93;;;13.10;;
66521;SDS011;53349;53.538;8.584;2022-10-31T04:59:27;26.33;;;12.63;;
66521;SDS011;53349;53.538;8.584;2022-10-31T05:01:52;28.00;;;12.87;;
66521;SDS011;53349;53.538;8.584;2022-10-31T05:04:18;23.63;;;12.40;;
66521;SDS011;53349;53.538;8.584;2022-10-31T05:06:43;26.90;;;12.50;;
66521;SDS011;53349;53.538;8.584;2022-10-31T05:09:08;29.13;;;12.27;;
66521;SDS011;53349;53.538;8.584;2022-10-31T05:11:34;24.27;;;11.67;;
66521;SDS011;53349;53.538;8.584;2022-10-31T05:13:59;29.73;;;12.03;;
66521;SDS011;53349;53.538;8.584;2022-10-31T05:16:25;32.20;;;12.33;;
66521;SDS011;53349;53.538;8.584;2022-10-31T05:18:50;30.88;;;12.13;;
66521;SDS011;53349;53.538;8.584;2022-10-31T05:21:15;27.63;;;11.85;;
66521;SDS011;53349;53.538;8.584;2022-10-31T05:23:40;23.47;;;11.10;;
66521;SDS011;53349;53.538;8.584;2022-10-31T05:26:06;29.90;;;13.30;;
66521;SDS011;53349;53.538;8.584;2022-10-31T05:28:31;22.53;;;11.73;;
66521;SDS011;53349;53.538;8.584;2022-10-31T05:30:56;29.97;;;13.00;;
66521;SDS011;53349;53.538;8.584;2022-10-31T05:33:22;25.57;;;12.20;;
66521;SDS011;53349;53.538;8.584;2022-10-31T05:35:47;24.87;;;11.53;;
66521;SDS011;53349;53.538;8.584;2022-10-31T05:38:13;27.50;;;11.43;;
66521;SDS011;53349;53.538;8.584;2022-10-31T05:40:38;31.70;;;11.43;;
66521;SDS011;53349;53.538;8.584;2022-10-31T05:43:03;28.73;;;12.63;;
66521;SDS011;53349;53.538;8.584;2022-10-31T05:45:29;27.67;;;12.23;;
66521;SDS011;53349;53.538;8.584;2022-10-31T05:47:55;27.10;;;11.77;;
66521;SDS011;53349;53.538;8.584;2022-10-31T05:50:22;32.15;;;11.35;;
66521;SDS011;53349;53.538;8.584;2022-10-31T05:52:53;23.38;;;11.55;;
66521;SDS011;53349;53.538;8.584;2022-10-31T05:55:26;25.10;;;11.37;;
66521;SDS011;53349;53.538;8.584;2022-10-31T05:57:53;22.45;;;11.32;;
66521;SDS011;53349;53.538;8.584;2022-10-31T06:00:19;25.85;;;11.57;;
66521;SDS011;53349;53.538;8.584;2022-10-31T06:02:45;28.27;;;10.98;;
66521;SDS011;53349;53.538;8.584;2022-10-31T06:05:11;27.77;;;10.87;;
66521;SDS011;53349;53.538;8.584;2022-10-31T06:07:37;22.83;;;10.15;;
66521;SDS011;53349;53.538;8.584;2022-10-31T06:10:03;25.53;;;10.50;;
66521;SDS011;53349;53.538;8.584;2022-10-31T06:12:30;28.70;;;9.57;;
66521;SDS011;53349;53.538;8.584;2022-10-31T06:14:55;21.97;;;9.70;;
66521;SDS011;53349;53.538;8.584;2022-10-31T06:17:21;16.08;;;9.57;;
66521;SDS011;53349;53.538;8.584;2022-10-31T06:19:47;20.13;;;9.40;;
66521;SDS011;53349;53.538;8.584;2022-10-31T06:22:12;19.90;;;9.40;;
66521;SDS011;53349;53.538;8.584;2022-10-31T06:24:37;19.27;;;9.43;;
66521;SDS011;53349;53.538;8.584;2022-10-31T06:27:03;16.88;;;9.15;;
66521;SDS011;53349;53.538;8.584;2022-10-31T06:29:29;19.43;;;9.13;;
66521;SDS011;53349;53.538;8.584;2022-10-31T06:31:54;15.50;;;8.87;;
66521;SDS011;53349;53.538;8.584;2022-10-31T06:34:19;27.37;;;9.33;;
66521;SDS011;53349;53.538;8.584;2022-10-31T06:36:47;23.40;;;8.73;;
66521;SDS011;53349;53.538;8.584;2022-10-31T06:39:14;23.08;;;9.38;;
66521;SDS011;53349;53.538;8.584;2022-10-31T06:41:40;22.60;;;8.85;;
66521;SDS011;53349;53.538;8.584;2022-10-31T06:44:06;22.73;;;9.90;;
66521;SDS011;53349;53.538;8.584;2022-10-31T06:46:32;26.43;;;9.53;;
66521;SDS011;53349;53.538;8.584;2022-10-31T06:49:01;22.00;;;9.60;;
66521;SDS011;53349;53.538;8.584;2022-10-31T06:51:26;19.43;;;9.43;;
66521;SDS011;53349;53.538;8.584;2022-10-31T06:53:51;21.10;;;9.33;;
66521;SDS011;53349;53.538;8.584;2022-10-31T06:56:17;27.10;;;9.65;;
66521;SDS011;53349;53.538;8.584;2022-10-31T06:58:42;25.07;;;10.03;;
66521;SDS011;53349;53.538;8.584;2022-10-31T07:01:08;27.87;;;10.37;;
66521;SDS011;53349;53.538;8.584;2022-10-31T07:03:33;28.17;;;11.60;;
66521;SDS011;53349;53.538;8.584;2022-10-31T07:05:58;39.77;;;14.00;;
66521;SDS011;53349;53.538;8.584;2022-10-31T07:08:24;37.50;;;13.97;;
66521;SDS011;53349;53.538;8.584;2022-10-31T07:10:53;47.30;;;15.07;;
66521;SDS011;53349;53.538;8.584;2022-10-31T07:13:20;40.92;;;14.50;;
66521;SDS011;53349;53.538;8.584;2022-10-31T07:15:50;38.70;;;14.02;;
66521;SDS011;53349;53.538;8.584;2022-10-31T07:18:16;36.88;;;14.50;;
66521;SDS011;53349;53.538;8.584;2022-10-31T07:20:42;38.43;;;14.10;;
66521;SDS011;53349;53.538;8.584;2022-10-31T07:23:08;38.27;;;14.37;;
66521;SDS011;53349;53.538;8.584;2022-10-31T07:25:35;37.08;;;13.70;;
66521;SDS011;53349;53.538;8.584;2022-10-31T07:28:00;36.13;;;13.73;;
66521;SDS011;53349;53.538;8.584;2022-10-31T07:30:26;37.23;;;13.60;;
66521;SDS011;53349;53.538;8.584;2022-10-31T07:32:51;28.20;;;12.73;;
66521;SDS011;53349;53.538;8.584;2022-10-31T07:35:18;32.22;;;13.25;;
66521;SDS011;53349;53.538;8.584;2022-10-31T07:37:47;36.83;;;13.57;;
66521;SDS011;53349;53.538;8.584;2022-10-31T07:40:14;42.37;;;14.80;;
66521;SDS011;53349;53.538;8.584;2022-10-31T07:42:40;37.08;;;15.05;;
66521;SDS011;53349;53.538;8.584;2022-10-31T07:45:08;37.38;;;15.18;;
66521;SDS011;53349;53.538;8.584;2022-10-31T07:47:38;36.47;;;15.20;;
66521;SDS011;53349;53.538;8.584;2022-10-31T07:50:08;39.22;;;14.80;;
66521;SDS011;53349;53.538;8.584;2022-10-31T07:52:35;36.85;;;15.25;;
66521;SDS011;53349;53.538;8.584;2022-10-31T07:55:01;31.57;;;13.90;;
66521;SDS011;53349;53.538;8.584;2022-10-31T07:57:27;30.73;;;13.07;;
66521;SDS011;53349;53.538;8.584;2022-10-31T07:59:52;34.92;;;13.50;;
66521;SDS011;53349;53.538;8.584;2022-10-31T08:02:18;31.73;;;13.05;;
66521;SDS011;53349;53.538;8.584;2022-10-31T08:04:43;30.23;;;13.63;;
66521;SDS011;53349;53.538;8.584;2022-10-31T08:07:10;30.00;;;12.47;;
66521;SDS011;53349;53.538;8.584;2022-10-31T08:09:35;36.30;;;14.55;;
66521;SDS011;53349;53.538;8.584;2022-10-31T08:12:00;33.03;;;14.67;;
66521;SDS011;53349;53.538;8.584;2022-10-31T08:14:26;33.73;;;16.07;;
66521;SDS011;53349;53.538;8.584;2022-10-31T08:16:52;39.20;;;15.75;;
66521;SDS011;53349;53.538;8.584;2022-10-31T08:19:18;39.08;;;15.40;;
66521;SDS011;53349;53.538;8.584;2022-10-31T08:21:45;47.88;;;17.27;;
66521;SDS011;53349;53.538;8.584;2022-10-31T08:24:10;46.87;;;17.33;;
66521;SDS011;53349;53.538;8.584;2022-10-31T08:26:36;47.57;;;17.40;;
66521;SDS011;53349;53.538;8.584;2022-10-31T08:29:02;43.65;;;17.02;;
66521;SDS011;53349;53.538;8.584;2022-10-31T08:31:27;43.83;;;17.13;;
66521;SDS011;53349;53.538;8.584;2022-10-31T08:33:53;50.83;;;19.73;;
66521;SDS011;53349;53.538;8.584;2022-10-31T08:36:19;44.10;;;18.87;;
66521;SDS011;53349;53.538;8.584;2022-10-31T08:38:46;54.05;;;19.48;;
66521;SDS011;53349;53.538;8.584;2022-10-31T08:41:12;53.75;;;19.52;;
66521;SDS011;53349;53.538;8.584;2022-10-31T08:43:37;47.87;;;17.97;;
66521;SDS011;53349;53.538;8.584;2022-10-31T08:46:02;42.57;;;17.23;;
66521;SDS011;53349;53.538;8.584;2022-10-31T08:48:28;40.60;;;16.00;;
66521;SDS011;53349;53.538;8.584;2022-10-31T08:50:55;40.03;;;16.88;;
66521;SDS011;53349;53.538;8.584;2022-10-31T08:53:23;41.22;;;16.42;;
66521;SDS011;53349;53.538;8.584;2022-10-31T08:55:49;42.13;;;17.47;;
66521;SDS011;53349;53.538;8.584;2022-10-31T08:58:18;48.65;;;18.30;;
66521;SDS011;53349;53.538;8.584;2022-10-31T09:00:44;40.50;;;16.93;;
66521;SDS011;53349;53.538;8.584;2022-10-31T09:03:12;44.40;;;16.23;;
66521;SDS011;53349;53.538;8.584;2022-10-31T09:05:39;44.95;;;17.20;;
66521;SDS011;53349;53.538;8.584;2022-10-31T09:08:05;51.78;;;17.48;;
66521;SDS011;53349;53.538;8.584;2022-10-31T09:10:32;44.88;;;16.17;;
66521;SDS011;53349;53.538;8.584;2022-10-31T09:12:59;49.05;;;17.50;;
66521;SDS011;53349;53.538;8.584;2022-10-31T09:15:31;48.38;;;16.92;;
66521;SDS011;53349;53.538;8.584;2022-10-31T09:17:57;49.10;;;17.20;;
66521;SDS011;53349;53.538;8.584;2022-10-31T09:20:22;47.43;;;16.83;;
66521;SDS011;53349;53.538;8.584;2022-10-31T09:22:54;52.47;;;16.77;;
66521;SDS011;53349;53.538;8.584;2022-10-31T09:25:30;46.15;;;17.60;;
66521;SDS011;53349;53.538;8.584;2022-10-31T09:27:58;48.72;;;18.45;;
66521;SDS011;53349;53.538;8.584;2022-10-31T09:30:25;44.27;;;17.90;;
66521;SDS011;53349;53.538;8.584;2022-10-31T09:32:58;45.20;;;17.38;;
66521;SDS011;53349;53.538;8.584;2022-10-31T09:35:25;47.80;;;17.85;;
66521;SDS011;53349;53.538;8.584;2022-10-31T09:37:57;46.63;;;18.65;;
66521;SDS011;53349;53.538;8.584;2022-10-31T09:40:27;51.15;;;19.90;;
66521;SDS011;53349;53.538;8.584;2022-10-31T09:48:20;43.20;;;18.08;;
66521;SDS011;53349;53.538;8.584;2022-10-31T09:53:32;53.40;;;19.77;;
66521;SDS011;53349;53.538;8.584;2022-10-31T09:56:10;54.63;;;20.40;;
66521;SDS011;53349;53.538;8.584;2022-10-31T09:58:42;50.05;;;19.90;;
66521;SDS011;53349;53.538;8.584;2022-10-31T10:01:22;50.22;;;19.85;;
66521;SDS011;53349;53.538;8.584;2022-10-31T10:04:02;45.42;;;18.85;;
66521;SDS011;53349;53.538;8.584;2022-10-31T10:06:38;46.03;;;18.65;;
66521;SDS011;53349;53.538;8.584;2022-10-31T10:09:09;54.07;;;20.03;;
66521;SDS011;53349;53.538;8.584;2022-10-31T10:19:58;40.13;;;15.95;;
66521;SDS011;53349;53.538;8.584;2022-10-31T10:25:28;43.20;;;17.85;;
66521;SDS011;53349;53.538;8.584;2022-10-31T10:31:06;36.95;;;15.95;;
66521;SDS011;53349;53.538;8.584;2022-10-31T10:36:06;33.73;;;14.23;;
66521;SDS011;53349;53.538;8.584;2022-10-31T10:38:38;31.00;;;14.02;;
66521;SDS011;53349;53.538;8.584;2022-10-31T10:41:12;30.40;;;15.05;;
66521;SDS011;53349;53.538;8.584;2022-10-31T10:43:41;32.22;;;13.70;;
66521;SDS011;53349;53.538;8.584;2022-10-31T10:51:47;30.73;;;14.30;;
66521;SDS011;53349;53.538;8.584;2022-10-31T10:59:56;30.50;;;13.88;;
66521;SDS011;53349;53.538;8.584;2022-10-31T11:02:25;27.75;;;13.60;;
66521;SDS011;53349;53.538;8.584;2022-10-31T11:04:56;27.27;;;13.57;;
66521;SDS011;53349;53.538;8.584;2022-10-31T11:07:23;28.03;;;13.57;;
66521;SDS011;53349;53.538;8.584;2022-10-31T11:09:48;30.35;;;14.57;;
66521;SDS011;53349;53.538;8.584;2022-10-31T11:12:30;31.00;;;14.20;;
66521;SDS011;53349;53.538;8.584;2022-10-31T11:14:58;30.35;;;14.23;;
66521;SDS011;53349;53.538;8.584;2022-10-31T11:17:36;30.07;;;14.20;;
66521;SDS011;53349;53.538;8.584;2022-10-31T11:22:38;31.83;;;14.30;;
66521;SDS011;53349;53.538;8.584;2022-10-31T11:28:03;31.77;;;13.98;;
66521;SDS011;53349;53.538;8.584;2022-10-31T11:30:35;32.13;;;15.07;;
66521;SDS011;53349;53.538;8.584;2022-10-31T11:33:12;34.15;;;15.20;;
66521;SDS011;53349;53.538;8.584;2022-10-31T11:36:14;30.85;;;14.68;;
66521;SDS011;53349;53.538;8.584;2022-10-31T11:38:44;27.30;;;13.65;;
66521;SDS011;53349;53.538;8.584;2022-10-31T11:41:11;30.07;;;14.70;;
66521;SDS011;53349;53.538;8.584;2022-10-31T11:43:39;27.75;;;13.43;;
66521;SDS011;53349;53.538;8.584;2022-10-31T11:46:14;32.20;;;14.20;;
66521;SDS011;53349;53.538;8.584;2022-10-31T11:48:46;31.58;;;13.93;;
66521;SDS011;53349;53.538;8.584;2022-10-31T11:51:19;32.25;;;13.85;;
66521;SDS011;53349;53.538;8.584;2022-10-31T11:53:50;31.90;;;13.80;;
66521;SDS011;53349;53.538;8.584;2022-10-31T11:56:17;36.45;;;15.00;;
66521;SDS011;53349;53.538;8.584;2022-10-31T11:58:54;37.55;;;17.98;;
66521;SDS011;53349;53.538;8.584;2022-10-31T12:01:23;35.70;;;16.95;;
66521;SDS011;53349;53.538;8.584;2022-10-31T12:06:37;33.15;;;15.18;;
66521;SDS011;53349;53.538;8.584;2022-10-31T12:09:15;42.97;;;18.13;;
66521;SDS011;53349;53.538;8.584;2022-10-31T12:20:20;34.90;;;15.07;;
66521;SDS011;53349;53.538;8.584;2022-10-31T12:25:39;35.17;;;14.95;;
66521;SDS011;53349;53.538;8.584;2022-10-31T12:28:34;33.20;;;14.82;;
66521;SDS011;53349;53.538;8.584;2022-10-31T12:33:56;33.92;;;13.98;;
66521;SDS011;53349;53.538;8.584;2022-10-31T12:53:07;33.70;;;15.30;;
66521;SDS011;53349;53.538;8.584;2022-10-31T12:58:14;33.03;;;14.90;;
66521;SDS011;53349;53.538;8.584;2022-10-31T13:00:47;33.83;;;15.57;;
66521;SDS011;53349;53.538;8.584;2022-10-31T13:03:24;33.70;;;15.32;;
66521;SDS011;53349;53.538;8.584;2022-10-31T13:06:16;35.67;;;14.25;;
66521;SDS011;53349;53.538;8.584;2022-10-31T13:08:47;33.42;;;15.45;;
66521;SDS011;53349;53.538;8.584;2022-10-31T13:14:23;32.25;;;14.65;;
66521;SDS011;53349;53.538;8.584;2022-10-31T13:16:54;34.53;;;15.38;;
66521;SDS011;53349;53.538;8.584;2022-10-31T13:19:22;33.83;;;14.65;;
66521;SDS011;53349;53.538;8.584;2022-10-31T13:22:10;33.90;;;15.15;;
66521;SDS011;53349;53.538;8.584;2022-10-31T13:24:39;33.08;;;14.48;;
66521;SDS011;53349;53.538;8.584;2022-10-31T13:27:59;31.50;;;13.85;;
66521;SDS011;53349;53.538;8.584;2022-10-31T13:30:29;33.58;;;14.00;;
66521;SDS011;53349;53.538;8.584;2022-10-31T13:33:02;33.58;;;14.68;;
66521;SDS011;53349;53.538;8.584;2022-10-31T13:35:54;31.55;;;14.82;;
66521;SDS011;53349;53.538;8.584;2022-10-31T13:38:36;31.85;;;14.35;;
66521;SDS011;53349;53.538;8.584;2022-10-31T13:46:22;34.30;;;14.80;;
66521;SDS011;53349;53.538;8.584;2022-10-31T13:48:49;35.63;;;15.00;;
66521;SDS011;53349;53.538;8.584;2022-10-31T13:51:23;33.63;;;14.40;;
66521;SDS011;53349;53.538;8.584;2022-10-31T13:54:06;34.70;;;14.18;;
66521;SDS011;53349;53.538;8.584;2022-10-31T13:56:48;34.70;;;13.52;;
66521;SDS011;53349;53.538;8.584;2022-10-31T13:59:17;33.58;;;14.50;;
66521;SDS011;53349;53.538;8.584;2022-10-31T14:01:46;33.38;;;13.75;;
66521;SDS011;53349;53.538;8.584;2022-10-31T14:04:23;33.83;;;14.40;;
66521;SDS011;53349;53.538;8.584;2022-10-31T14:09:26;37.53;;;14.77;;
66521;SDS011;53349;53.538;8.584;2022-10-31T14:12:27;31.23;;;13.55;;
66521;SDS011;53349;53.538;8.584;2022-10-31T14:15:38;33.83;;;13.57;;
66521;SDS011;53349;53.538;8.584;2022-10-31T14:22:39;35.63;;;14.37;;
66521;SDS011;53349;53.538;8.584;2022-10-31T14:27:49;35.43;;;14.00;;
66521;SDS011;53349;53.538;8.584;2022-10-31T14:30:17;35.60;;;13.73;;
66521;SDS011;53349;53.538;8.584;2022-10-31T14:32:49;34.50;;;14.00;;
66521;SDS011;53349;53.538;8.584;2022-10-31T14:35:17;31.65;;;12.50;;
66521;SDS011;53349;53.538;8.584;2022-10-31T14:42:55;32.75;;;13.52;;
66521;SDS011;53349;53.538;8.584;2022-10-31T14:48:24;30.42;;;12.93;;
66521;SDS011;53349;53.538;8.584;2022-10-31T14:50:56;28.00;;;11.90;;
66521;SDS011;53349;53.538;8.584;2022-10-31T14:53:24;28.52;;;11.93;;
66521;SDS011;53349;53.538;8.584;2022-10-31T14:55:56;27.23;;;11.02;;
66521;SDS011;53349;53.538;8.584;2022-10-31T14:58:57;24.65;;;11.18;;
66521;SDS011;53349;53.538;8.584;2022-10-31T15:01:29;27.52;;;11.38;;
66521;SDS011;53349;53.538;8.584;2022-10-31T15:04:00;25.85;;;11.38;;
66521;SDS011;53349;53.538;8.584;2022-10-31T15:06:30;27.45;;;11.18;;
66521;SDS011;53349;53.538;8.584;2022-10-31T15:09:22;29.60;;;11.75;;
66521;SDS011;53349;53.538;8.584;2022-10-31T15:11:59;27.30;;;11.48;;
66521;SDS011;53349;53.538;8.584;2022-10-31T15:14:26;26.05;;;10.13;;
66521;SDS011;53349;53.538;8.584;2022-10-31T15:16:53;30.08;;;11.55;;
66521;SDS011;53349;53.538;8.584;2022-10-31T15:19:26;28.75;;;11.40;;
66521;SDS011;53349;53.538;8.584;2022-10-31T15:21:54;27.25;;;11.98;;
66521;SDS011;53349;53.538;8.584;2022-10-31T15:24:22;30.48;;;11.40;;
66521;SDS011;53349;53.538;8.584;2022-10-31T15:26:52;30.67;;;11.43;;
66521;SDS011;53349;53.538;8.584;2022-10-31T15:29:19;26.88;;;10.50;;
66521;SDS011;53349;53.538;8.584;2022-10-31T15:31:53;28.00;;;10.85;;
66521;SDS011;53349;53.538;8.584;2022-10-31T15:34:36;26.10;;;11.43;;
66521;SDS011;53349;53.538;8.584;2022-10-31T15:37:02;33.17;;;11.45;;
66521;SDS011;53349;53.538;8.584;2022-10-31T15:39:28;32.65;;;11.73;;
66521;SDS011;53349;53.538;8.584;2022-10-31T15:41:54;33.47;;;11.80;;
66521;SDS011;53349;53.538;8.584;2022-10-31T15:44:32;27.90;;;11.52;;
66521;SDS011;53349;53.538;8.584;2022-10-31T15:47:01;34.03;;;11.43;;
66521;SDS011;53349;53.538;8.584;2022-10-31T15:49:30;31.05;;;11.57;;
66521;SDS011;53349;53.538;8.584;2022-10-31T15:52:12;35.13;;;13.38;;
66521;SDS011;53349;53.538;8.584;2022-10-31T15:54:45;30.03;;;12.23;;
66521;SDS011;53349;53.538;8.584;2022-10-31T15:57:13;28.73;;;11.63;;
66521;SDS011;53349;53.538;8.584;2022-10-31T15:59:39;29.20;;;10.88;;
66521;SDS011;53349;53.538;8.584;2022-10-31T16:02:09;28.63;;;11.23;;
66521;SDS011;53349;53.538;8.584;2022-10-31T16:04:35;28.30;;;11.77;;
66521;SDS011;53349;53.538;8.584;2022-10-31T16:07:02;32.42;;;11.75;;
66521;SDS011;53349;53.538;8.584;2022-10-31T16:09:47;32.78;;;12.57;;
66521;SDS011;53349;53.538;8.584;2022-10-31T16:12:24;33.73;;;11.97;;
66521;SDS011;53349;53.538;8.584;2022-10-31T16:14:53;28.65;;;11.38;;
66521;SDS011;53349;53.538;8.584;2022-10-31T16:17:20;28.00;;;11.05;;
66521;SDS011;53349;53.538;8.584;2022-10-31T16:19:50;27.50;;;10.88;;
66521;SDS011;53349;53.538;8.584;2022-10-31T16:22:37;28.42;;;11.10;;
66521;SDS011;53349;53.538;8.584;2022-10-31T16:25:04;26.93;;;11.00;;
66521;SDS011;53349;53.538;8.584;2022-10-31T16:27:33;27.95;;;11.10;;
66521;SDS011;53349;53.538;8.584;2022-10-31T16:30:01;28.48;;;10.70;;
66521;SDS011;53349;53.538;8.584;2022-10-31T16:32:33;30.17;;;10.82;;
66521;SDS011;53349;53.538;8.584;2022-10-31T16:35:34;30.42;;;11.48;;
66521;SDS011;53349;53.538;8.584;2022-10-31T16:38:01;31.77;;;11.67;;
66521;SDS011;53349;53.538;8.584;2022-10-31T16:40:27;31.88;;;12.50;;
66521;SDS011;53349;53.538;8.584;2022-10-31T16:42:53;31.08;;;10.98;;
66521;SDS011;53349;53.538;8.584;2022-10-31T16:45:19;33.93;;;11.53;;
66521;SDS011;53349;53.538;8.584;2022-10-31T16:47:50;28.92;;;10.77;;
66521;SDS011;53349;53.538;8.584;2022-10-31T16:50:18;30.98;;;10.90;;
66521;SDS011;53349;53.538;8.584;2022-10-31T16:52:46;30.33;;;12.05;;
66521;SDS011;53349;53.538;8.584;2022-10-31T16:55:15;29.40;;;11.20;;
66521;SDS011;53349;53.538;8.584;2022-10-31T16:57:44;30.02;;;11.10;;